| time (UTC) | temp C | wind direction | speed KPH | gust KPH | rain 1hr cm | rain 24hr cm | rain mn cm | humidity % | barometer mb |
| 20260906034722 | 11 | 226 | 6.4 | 9.7 | 0.15 | 0.91 | 0.66 | 97 | 1004.0 |
| 20260906034222 | 11 | 226 | 6.4 | 11.3 | 0.15 | 0.91 | 0.66 | 97 | 1004.0 |
| 20260906033941 | 11 | 226 | 6.4 | 11.3 | 0.15 | 0.91 | 0.66 | 97 | 1004.0 |
| 20260906033219 | 11 | 230 | 6.4 | 11.3 | 0.15 | 0.91 | 0.66 | 97 | 1003.9 |
| 20260906032720 | 11 | 219 | 6.4 | 9.7 | 0.15 | 0.91 | 0.66 | 97 | 1003.9 |
| 20260906032219 | 11 | 218 | 4.8 | 8.0 | 0.15 | 0.91 | 0.66 | 97 | 1003.8 |
| 20260906031719 | 11 | 281 | 3.2 | 6.4 | 0.18 | 0.91 | 0.66 | 97 | 1003.7 |
| 20260906031217 | 11 | 282 | 3.2 | 6.4 | 0.15 | 0.89 | 0.64 | 97 | 1003.7 |
| 20260906030728 | 11 | 282 | 6.4 | 12.9 | 0.15 | 0.89 | 0.61 | 97 | 1003.7 |
| 20260906030215 | 11 | 284 | 9.7 | 17.7 | 0.15 | 0.89 | 0.61 | 97 | 1003.7 |
| 20260906030156 | 11 | 291 | 9.7 | 17.7 | 0.15 | 0.86 | 0.61 | 97 | 1003.7 |
| 20260906025214 | 11 | 281 | 6.4 | 16.1 | 0.08 | 0.79 | 0.56 | 97 | 1003.6 |
| 20260906024937 | 11 | 194 | 4.8 | 8.0 | 0.08 | 0.79 | 0.53 | 97 | 1003.6 |
| 20260906024214 | 11 | 192 | 6.4 | 9.7 | 0.10 | 0.79 | 0.51 | 97 | 1003.6 |
| 20260906023713 | 11 | 187 | 6.4 | 11.3 | 0.08 | 0.76 | 0.51 | 97 | 1003.6 |
| 20260906023213 | 11 | 221 | 6.4 | 11.3 | 0.08 | 0.76 | 0.51 | 97 | 1003.7 |
| 20260906022712 | 11 | 219 | 4.8 | 9.7 | 0.08 | 0.76 | 0.51 | 97 | 1003.5 |
| 20260906022426 | 11 | 215 | 6.4 | 11.3 | 0.08 | 0.76 | 0.51 | 97 | 1003.5 |
| 20260906021715 | 11 | 219 | 6.4 | 11.3 | 0.08 | 0.74 | 0.48 | 97 | 1003.6 |
| 20260906021157 | 11 | 215 | 4.8 | 9.7 | 0.10 | 0.74 | 0.48 | 97 | 1003.4 |
| 20260906020654 | 11 | 214 | 4.8 | 8.0 | 0.10 | 0.74 | 0.48 | 97 | 1003.3 |
| 20260906020416 | 11 | 213 | 4.8 | 9.7 | 0.10 | 0.74 | 0.48 | 97 | 1003.2 |
| 20260906015916 | 11 | 217 | 6.4 | 11.3 | 0.08 | 0.71 | 0.46 | 97 | 1003.3 |
| 20260906015416 | 11 | 241 | 6.4 | 11.3 | 0.08 | 0.71 | 0.46 | 97 | 1003.2 |
| 20260906014654 | 11 | 214 | 4.8 | 8.0 | 0.05 | 0.71 | 0.43 | 97 | 1003.2 |
| 20260906014415 | 11 | 225 | 3.2 | 6.4 | 0.05 | 0.69 | 0.43 | 97 | 1003.2 |
| 20260906013654 | 11 | 225 | 3.2 | 6.4 | 0.08 | 0.69 | 0.43 | 97 | 1003.0 |
| 20260906013152 | 11 | 224 | 1.6 | 4.8 | 0.08 | 0.69 | 0.43 | 98 | 1002.9 |
| 20260906012652 | 11 | 224 | 1.6 | 4.8 | 0.08 | 0.69 | 0.43 | 98 | 1002.9 |
| 20260906012149 | 11 | 224 | 1.6 | 4.8 | 0.10 | 0.69 | 0.43 | 98 | 1002.7 |
| 20260906011649 | 11 | 224 | 3.2 | 6.4 | 0.15 | 0.66 | 0.41 | 98 | 1002.9 |
| 20260906011150 | 11 | 224 | 4.8 | 6.4 | 0.13 | 0.64 | 0.38 | 97 | 1002.9 |
| 20260906010650 | 11 | 224 | 4.8 | 8.0 | 0.13 | 0.64 | 0.38 | 97 | 1002.6 |
| 20260906010201 | 11 | 225 | 4.8 | 8.0 | 0.13 | 0.64 | 0.38 | 97 | 1002.8 |
| 20260906005649 | 11 | 280 | 4.8 | 6.4 | 0.13 | 0.64 | 0.38 | 97 | 1002.9 |
| 20260906005148 | 11 | 280 | 3.2 | 6.4 | 0.13 | 0.64 | 0.38 | 97 | 1002.7 |
| 20260906004650 | 11 | 280 | 3.2 | 6.4 | 0.13 | 0.64 | 0.38 | 98 | 1002.9 |
| 20260906004147 | 11 | 280 | 3.2 | 6.4 | 0.10 | 0.61 | 0.38 | 98 | 1002.9 |
| 20260906003644 | 11 | 280 | 3.2 | 6.4 | 0.08 | 0.61 | 0.33 | 98 | 1002.9 |
| 20260906003144 | 11 | 280 | 1.6 | 4.8 | 0.08 | 0.61 | 0.33 | 98 | 1002.8 |
| 20260906002646 | 11 | 280 | 0.0 | 4.8 | 0.10 | 0.61 | 0.33 | 98 | 1002.6 |
| 20260906002144 | 11 | 280 | 0.0 | 0.0 | 0.08 | 0.58 | 0.33 | 98 | 1002.6 |
| 20260906001643 | 11 | 280 | 0.0 | 0.0 | 0.05 | 0.51 | 0.28 | 98 | 1002.5 |
| 20260906001142 | 11 | 280 | 0.0 | 0.0 | 0.08 | 0.51 | 0.25 | 98 | 1002.5 |
| 20260906001129 | 11 | 280 | 0.0 | 0.0 | 0.10 | 0.51 | 0.25 | 98 | 1002.5 |
| 20260906000140 | 11 | 280 | 0.0 | 1.6 | 0.13 | 0.51 | 0.25 | 97 | 1002.4 |
| 20260905235642 | 11 | 280 | 1.6 | 4.8 | 0.13 | 0.51 | 0.25 | 97 | 1002.6 |
| 20260905235138 | 11 | 280 | 3.2 | 4.8 | 0.13 | 0.51 | 0.25 | 97 | 1002.6 |
| 20260905234900 | 11 | 280 | 3.2 | 4.8 | 0.15 | 0.51 | 0.25 | 97 | 1002.6 |
| 20260905234140 | 11 | 280 | 1.6 | 4.8 | 0.15 | 0.51 | 0.25 | 97 | 1002.7 |
| 20260905233637 | 11 | 280 | 1.6 | 4.8 | 0.15 | 0.51 | 0.25 | 97 | 1002.5 |
| 20260905233136 | 11 | 280 | 1.6 | 4.8 | 0.15 | 0.51 | 0.25 | 97 | 1002.3 |
| 20260905232634 | 11 | 280 | 1.6 | 4.8 | 0.13 | 0.51 | 0.23 | 97 | 1002.3 |
| 20260905232352 | 11 | 280 | 3.2 | 4.8 | 0.13 | 0.51 | 0.23 | 97 | 1002.3 |
| 20260905231634 | 11 | 280 | 3.2 | 4.8 | 0.10 | 0.48 | 0.23 | 97 | 1002.3 |
| 20260905231626 | 11 | 280 | 3.2 | 4.8 | 0.08 | 0.43 | 0.20 | 97 | 1002.3 |
| 20260905230634 | 11 | 280 | 1.6 | 6.4 | 0.08 | 0.43 | 0.15 | 97 | 1002.3 |
| 20260905230132 | 11 | 280 | 0.0 | 6.4 | 0.08 | 0.41 | 0.15 | 97 | 1002.2 |
| 20260905225851 | 11 | 280 | 1.6 | 4.8 | 0.08 | 0.41 | 0.15 | 97 | 1002.2 |
| 20260905225132 | 11 | 280 | 1.6 | 4.8 | 0.08 | 0.41 | 0.15 | 97 | 1002.3 |
| 20260905224631 | 11 | 280 | 1.6 | 4.8 | 0.05 | 0.38 | 0.13 | 97 | 1002.2 |
| 20260905224128 | 11 | 280 | 3.2 | 6.4 | 0.05 | 0.38 | 0.13 | 97 | 1002.1 |
| 20260905223628 | 11 | 280 | 4.8 | 9.7 | 0.05 | 0.38 | 0.13 | 97 | 1002.1 |
| 20260905223129 | 11 | 281 | 4.8 | 9.7 | 0.05 | 0.38 | 0.13 | 97 | 1002.2 |
| 20260905222628 | 11 | 281 | 6.4 | 11.3 | 0.05 | 0.38 | 0.13 | 97 | 1002.1 |
| 20260905222129 | 11 | 284 | 6.4 | 11.3 | 0.05 | 0.38 | 0.13 | 97 | 1002.1 |
| 20260905221626 | 11 | 269 | 6.4 | 9.7 | 0.10 | 0.38 | 0.13 | 97 | 1001.8 |
| 20260905221346 | 11 | 276 | 6.4 | 12.9 | 0.08 | 0.36 | 0.10 | 97 | 1001.9 |
| 20260905220621 | 11 | 268 | 6.4 | 14.5 | 0.05 | 0.33 | 0.08 | 97 | 1001.8 |
| 20260905220115 | 11 | 278 | 6.4 | 14.5 | 0.05 | 0.33 | 0.05 | 97 | 1002.0 |
| 20260905215610 | 11 | 226 | 4.8 | 9.7 | 0.05 | 0.33 | 0.05 | 97 | 1001.9 |
| 20260905215327 | 11 | 228 | 4.8 | 9.7 | 0.05 | 0.33 | 0.05 | 97 | 1002.0 |
| 20260905214610 | 11 | 231 | 4.8 | 9.7 | 0.05 | 0.33 | 0.05 | 97 | 1002.0 |
| 20260905214108 | 12 | 225 | 4.8 | 12.9 | 0.05 | 0.33 | 0.05 | 97 | 1001.9 |
| 20260905213608 | 12 | 247 | 6.4 | 12.9 | 0.05 | 0.33 | 0.05 | 97 | 1001.8 |
| 20260905213108 | 12 | 304 | 6.4 | 12.9 | 0.05 | 0.33 | 0.05 | 97 | 1001.8 |
| 20260905212605 | 12 | 292 | 6.4 | 12.9 | 0.05 | 0.33 | 0.05 | 97 | 1001.9 |
| 20260905212103 | 12 | 285 | 6.4 | 12.9 | 0.05 | 0.33 | 0.05 | 97 | 1001.9 |
| 20260905211558 | 12 | 279 | 3.2 | 11.3 | 0.03 | 0.28 | 0.03 | 97 | 1001.6 |
| 20260905211053 | 12 | 273 | 1.6 | 9.7 | 0.03 | 0.28 | 0.03 | 97 | 1001.4 |
| 20260905210548 | 12 | 300 | 0.0 | 3.2 | 0.03 | 0.28 | 0.03 | 97 | 1001.5 |
| 20260905210059 | 12 | 300 | 0.0 | 3.2 | 0.00 | 0.25 | 0.00 | 97 | 1001.6 |
| 20260905210039 | 12 | 300 | 0.0 | 3.2 | 0.00 | 0.25 | 0.28 | 97 | 1001.5 |
| 20260905205306 | 12 | 300 | 1.6 | 4.8 | 0.00 | 0.25 | 0.28 | 97 | 1001.4 |
| 20260905204540 | 12 | 300 | 3.2 | 4.8 | 0.00 | 0.25 | 0.28 | 97 | 1001.4 |
| 20260905204039 | 12 | 300 | 3.2 | 6.4 | 0.00 | 0.25 | 0.28 | 97 | 1001.4 |
| 20260905203759 | 12 | 300 | 3.2 | 6.4 | 0.00 | 0.25 | 0.28 | 97 | 1001.3 |
| 20260905203036 | 12 | 301 | 3.2 | 4.8 | 0.00 | 0.25 | 0.28 | 97 | 1001.3 |
| 20260905202530 | 12 | 301 | 3.2 | 4.8 | 0.00 | 0.25 | 0.28 | 97 | 1001.2 |
| 20260905202231 | 12 | 301 | 4.8 | 6.4 | 0.00 | 0.25 | 0.28 | 97 | 1001.1 |
| 20260905202123 | 12 | 301 | 3.2 | 6.4 | 0.00 | 0.25 | 0.28 | 97 | 1001.1 |
| 20260905201025 | 12 | 302 | 6.4 | 16.1 | 0.00 | 0.25 | 0.28 | 97 | 1001.0 |
| 20260905200525 | 12 | 302 | 6.4 | 16.1 | 0.00 | 0.25 | 0.28 | 97 | 1001.0 |
| 20260905200021 | 12 | 293 | 4.8 | 14.5 | 0.00 | 0.25 | 0.28 | 97 | 1001.2 |
| 20260905195522 | 12 | 332 | 3.2 | 9.7 | 0.05 | 0.25 | 0.28 | 97 | 1001.1 |
| 20260905195021 | 12 | 229 | 3.2 | 6.4 | 0.05 | 0.25 | 0.28 | 97 | 1001.0 |
| 20260905194522 | 12 | 228 | 1.6 | 6.4 | 0.05 | 0.25 | 0.28 | 97 | 1001.0 |
| 20260905194020 | 12 | 222 | 1.6 | 6.4 | 0.05 | 0.25 | 0.28 | 97 | 1000.9 |
| 20260905193519 | 12 | 222 | 3.2 | 9.7 | 0.05 | 0.25 | 0.28 | 97 | 1000.9 |
| 20260905193017 | 12 | 222 | 4.8 | 9.7 | 0.05 | 0.25 | 0.28 | 97 | 1000.9 |
| 20260905192519 | 12 | 218 | 4.8 | 9.7 | 0.05 | 0.25 | 0.28 | 97 | 1000.6 |
| 20260905192019 | 12 | 230 | 3.2 | 6.4 | 0.05 | 0.25 | 0.28 | 97 | 1000.7 |
| 20260905191530 | 12 | 230 | 3.2 | 6.4 | 0.05 | 0.25 | 0.28 | 97 | 1000.6 |
| 20260905191017 | 12 | 268 | 3.2 | 6.4 | 0.05 | 0.25 | 0.28 | 97 | 1000.5 |
| 20260905190516 | 12 | 294 | 3.2 | 6.4 | 0.05 | 0.25 | 0.28 | 97 | 1000.5 |
| 20260905190235 | 12 | 294 | 4.8 | 8.0 | 0.05 | 0.25 | 0.28 | 97 | 1000.4 |
| 20260905185505 | 12 | 294 | 4.8 | 11.3 | 0.03 | 0.23 | 0.25 | 96 | 1000.4 |
| 20260905184958 | 12 | 298 | 4.8 | 11.3 | 0.00 | 0.20 | 0.23 | 96 | 1000.6 |
| 20260905184457 | 12 | 269 | 4.8 | 9.7 | 0.00 | 0.20 | 0.23 | 96 | 1000.5 |
| 20260905183958 | 12 | 269 | 4.8 | 9.7 | 0.00 | 0.20 | 0.23 | 96 | 1000.4 |
| 20260905183458 | 12 | 269 | 6.4 | 11.3 | 0.00 | 0.20 | 0.23 | 96 | 1000.3 |
| 20260905182957 | 12 | 269 | 6.4 | 11.3 | 0.00 | 0.20 | 0.23 | 96 | 1000.3 |
| 20260905182458 | 12 | 300 | 4.8 | 11.3 | 0.03 | 0.20 | 0.23 | 96 | 1000.2 |
| 20260905182222 | 12 | 304 | 6.4 | 9.7 | 0.05 | 0.20 | 0.23 | 95 | 1000.1 |
| 20260905181457 | 12 | 284 | 6.4 | 9.7 | 0.15 | 0.20 | 0.23 | 95 | 1000.2 |
| 20260905181221 | 12 | 284 | 8.0 | 12.9 | 0.18 | 0.20 | 0.23 | 95 | 1000.1 |
| 20260905180510 | 12 | 311 | 8.0 | 14.5 | 0.18 | 0.20 | 0.23 | 95 | 1000.0 |
| 20260905175957 | 13 | 296 | 9.7 | 14.5 | 0.20 | 0.20 | 0.23 | 94 | 999.7 |
| 20260905175458 | 13 | 299 | 9.7 | 14.5 | 0.20 | 0.20 | 0.23 | 94 | 999.7 |
| 20260905175216 | 13 | 304 | 8.0 | 14.5 | 0.20 | 0.20 | 0.23 | 94 | 999.7 |
| 20260905174454 | 13 | 315 | 6.4 | 12.9 | 0.20 | 0.20 | 0.23 | 94 | 999.5 |
| 20260905173957 | 13 | 304 | 6.4 | 11.3 | 0.20 | 0.20 | 0.23 | 93 | 999.4 |
| 20260905173448 | 13 | 304 | 6.4 | 12.9 | 0.20 | 0.20 | 0.23 | 93 | 999.4 |
| 20260905172943 | 13 | 336 | 9.7 | 17.7 | 0.20 | 0.20 | 0.23 | 93 | 999.2 |
| 20260905172436 | 13 | 310 | 8.0 | 17.7 | 0.18 | 0.18 | 0.20 | 93 | 999.2 |
| 20260905171935 | 13 | 0 | 4.8 | 14.5 | 0.15 | 0.15 | 0.18 | 93 | 999.1 |
| 20260905171432 | 14 | 306 | 3.2 | 11.3 | 0.05 | 0.05 | 0.08 | 93 | 998.8 |
| 20260905170930 | 14 | 294 | 4.8 | 11.3 | 0.03 | 0.03 | 0.05 | 93 | 998.7 |
| 20260905170653 | 14 | 235 | 4.8 | 8.0 | 0.03 | 0.03 | 0.05 | 93 | 998.6 |
| 20260905165931 | 14 | 234 | 4.8 | 8.0 | 0.00 | 0.00 | 0.03 | 93 | 998.4 |
| 20260905165431 | 14 | 236 | 3.2 | 8.0 | 0.00 | 0.00 | 0.03 | 92 | 998.4 |
| 20260905165152 | 14 | 238 | 3.2 | 6.4 | 0.00 | 0.00 | 0.03 | 92 | 998.5 |
| 20260905164641 | 14 | 238 | 3.2 | 6.4 | 0.00 | 0.00 | 0.03 | 92 | 998.5 |
| 20260905163922 | 14 | 238 | 4.8 | 11.3 | 0.00 | 0.00 | 0.03 | 92 | 998.5 |
| 20260905163424 | 14 | 238 | 4.8 | 11.3 | 0.00 | 0.00 | 0.03 | 91 | 998.4 |
| 20260905162923 | 15 | 238 | 4.8 | 11.3 | 0.00 | 0.00 | 0.03 | 91 | 998.4 |
| 20260905162418 | 15 | 239 | 6.4 | 11.3 | 0.00 | 0.00 | 0.03 | 91 | 998.5 |
| 20260905161918 | 15 | 234 | 6.4 | 12.9 | 0.00 | 0.00 | 0.03 | 90 | 998.3 |
| 20260905161417 | 15 | 217 | 8.0 | 16.1 | 0.00 | 0.00 | 0.03 | 89 | 998.4 |
| 20260905160917 | 15 | 216 | 9.7 | 17.7 | 0.00 | 0.00 | 0.03 | 89 | 998.3 |
| 20260905160416 | 15 | 216 | 9.7 | 17.7 | 0.00 | 0.00 | 0.03 | 89 | 998.3 |
| 20260905160140 | 15 | 307 | 9.7 | 17.7 | 0.00 | 0.00 | 0.03 | 89 | 998.3 |
| 20260905155414 | 15 | 289 | 11.3 | 19.3 | 0.00 | 0.00 | 0.03 | 89 | 998.3 |
| 20260905154914 | 15 | 275 | 9.7 | 19.3 | 0.00 | 0.00 | 0.03 | 89 | 998.4 |
| 20260905154416 | 15 | 247 | 9.7 | 17.7 | 0.00 | 0.00 | 0.03 | 88 | 998.3 |
| 20260905153915 | 15 | 234 | 11.3 | 22.5 | 0.00 | 0.00 | 0.03 | 87 | 998.4 |
| 20260905153631 | 15 | 237 | 9.7 | 22.5 | 0.00 | 0.00 | 0.03 | 85 | 998.5 |
| 20260905152916 | 16 | 258 | 4.8 | 16.1 | 0.00 | 0.00 | 0.03 | 85 | 998.4 |
| 20260905152416 | 16 | 227 | 4.8 | 11.3 | 0.00 | 0.00 | 0.03 | 84 | 998.2 |
| 20260905151914 | 16 | 228 | 6.4 | 12.9 | 0.00 | 0.00 | 0.03 | 84 | 998.1 |
| 20260905151416 | 16 | 292 | 6.4 | 12.9 | 0.00 | 0.00 | 0.03 | 83 | 998.1 |
| 20260905150913 | 16 | 290 | 8.0 | 14.5 | 0.00 | 0.00 | 0.03 | 83 | 998.0 |
| 20260905150408 | 16 | 286 | 8.0 | 14.5 | 0.00 | 0.00 | 0.03 | 83 | 998.0 |
| 20260905150134 | 16 | 296 | 9.7 | 16.1 | 0.00 | 0.00 | 0.03 | 84 | 998.0 |
| 20260905145409 | 16 | 288 | 9.7 | 16.1 | 0.00 | 0.00 | 0.03 | 84 | 998.1 |
| 20260905144909 | 16 | 248 | 9.7 | 19.3 | 0.00 | 0.00 | 0.03 | 84 | 998.1 |
| 20260905144641 | 16 | 281 | 11.3 | 19.3 | 0.00 | 0.00 | 0.03 | 85 | 998.1 |
| 20260905143908 | 16 | 284 | 12.9 | 24.1 | 0.00 | 0.00 | 0.03 | 85 | 998.1 |
| 20260905143409 | 16 | 275 | 12.9 | 24.1 | 0.00 | 0.00 | 0.03 | 84 | 998.0 |
| 20260905142905 | 16 | 291 | 12.9 | 20.9 | 0.00 | 0.00 | 0.03 | 84 | 998.0 |
| 20260905142358 | 16 | 261 | 14.5 | 25.7 | 0.00 | 0.00 | 0.03 | 83 | 997.7 |
| 20260905141852 | 16 | 270 | 14.5 | 25.7 | 0.00 | 0.00 | 0.03 | 83 | 997.6 |
| 20260905141352 | 17 | 241 | 12.9 | 24.1 | 0.00 | 0.00 | 0.03 | 82 | 997.6 |
| 20260905140851 | 17 | 243 | 14.5 | 24.1 | 0.00 | 0.00 | 0.03 | 82 | 997.7 |
| 20260905140351 | 17 | 261 | 12.9 | 24.1 | 0.00 | 0.00 | 0.03 | 82 | 997.6 |
| 20260905135615 | 17 | 277 | 12.9 | 24.1 | 0.00 | 0.00 | 0.03 | 85 | 997.7 |
| 20260905134850 | 17 | 271 | 12.9 | 25.7 | 0.00 | 0.00 | 0.03 | 86 | 997.6 |
| 20260905134351 | 17 | 230 | 14.5 | 25.7 | 0.00 | 0.00 | 0.03 | 86 | 997.7 |
| 20260905133852 | 16 | 297 | 12.9 | 20.9 | 0.00 | 0.00 | 0.03 | 86 | 997.7 |
| 20260905133351 | 16 | 292 | 12.9 | 22.5 | 0.00 | 0.00 | 0.03 | 88 | 997.5 |
| 20260905132851 | 16 | 248 | 12.9 | 22.5 | 0.00 | 0.00 | 0.03 | 87 | 997.6 |
| 20260905132352 | 16 | 281 | 11.3 | 20.9 | 0.00 | 0.00 | 0.03 | 88 | 997.5 |
| 20260905132113 | 16 | 264 | 11.3 | 20.9 | 0.00 | 0.00 | 0.03 | 89 | 997.3 |
| 20260905131352 | 16 | 278 | 11.3 | 20.9 | 0.00 | 0.00 | 0.03 | 89 | 997.6 |
| 20260905130849 | 16 | 257 | 11.3 | 20.9 | 0.00 | 0.00 | 0.03 | 90 | 997.4 |
| 20260905130343 | 15 | 292 | 11.3 | 20.9 | 0.00 | 0.00 | 0.03 | 90 | 997.2 |
| 20260905125846 | 15 | 290 | 9.7 | 19.3 | 0.00 | 0.00 | 0.03 | 89 | 997.2 |
| 20260905125342 | 15 | 249 | 11.3 | 17.7 | 0.00 | 0.00 | 0.03 | 88 | 997.3 |
| 20260905124841 | 15 | 245 | 14.5 | 32.2 | 0.00 | 0.00 | 0.03 | 87 | 997.3 |
| 20260905124340 | 15 | 261 | 16.1 | 32.2 | 0.00 | 0.00 | 0.03 | 85 | 997.3 |
| 20260905123834 | 15 | 281 | 14.5 | 25.7 | 0.00 | 0.00 | 0.03 | 86 | 997.1 |
| 20260905123334 | 16 | 299 | 16.1 | 25.7 | 0.00 | 0.00 | 0.03 | 85 | 997.0 |
| 20260905123053 | 16 | 288 | 14.5 | 22.5 | 0.00 | 0.00 | 0.03 | 84 | 997.1 |
| 20260905122334 | 16 | 270 | 16.1 | 30.6 | 0.00 | 0.00 | 0.03 | 84 | 996.8 |
| 20260905121833 | 16 | 304 | 14.5 | 30.6 | 0.00 | 0.00 | 0.03 | 84 | 996.9 |
| 20260905121551 | 16 | 314 | 9.7 | 17.7 | 0.00 | 0.00 | 0.03 | 89 | 997.0 |
| 20260905120830 | 16 | 265 | 11.3 | 22.5 | 0.00 | 0.00 | 0.03 | 91 | 996.9 |
| 20260905120331 | 16 | 277 | 11.3 | 22.5 | 0.00 | 0.00 | 0.03 | 90 | 996.9 |
| 20260905115830 | 16 | 194 | 11.3 | 17.7 | 0.00 | 0.00 | 0.03 | 90 | 996.8 |
| 20260905115333 | 15 | 275 | 12.9 | 19.3 | 0.00 | 0.00 | 0.03 | 90 | 996.8 |
| 20260905114831 | 15 | 277 | 9.7 | 19.3 | 0.00 | 0.00 | 0.03 | 90 | 996.7 |
| 20260905114332 | 16 | 240 | 8.0 | 19.3 | 0.00 | 0.00 | 0.03 | 91 | 996.7 |
| 20260905113830 | 16 | 236 | 6.4 | 12.9 | 0.00 | 0.00 | 0.03 | 91 | 996.7 |
| 20260905113330 | 15 | 226 | 8.0 | 12.9 | 0.00 | 0.00 | 0.03 | 91 | 996.6 |
| 20260905112824 | 15 | 258 | 9.7 | 19.3 | 0.00 | 0.00 | 0.03 | 91 | 996.7 |
| 20260905112325 | 15 | 234 | 9.7 | 22.5 | 0.00 | 0.00 | 0.03 | 91 | 996.6 |
| 20260905111824 | 15 | 228 | 9.7 | 22.5 | 0.00 | 0.00 | 0.03 | 91 | 996.6 |
| 20260905111340 | 15 | 243 | 9.7 | 16.1 | 0.00 | 0.00 | 0.03 | 91 | 996.7 |
| 20260905110824 | 15 | 218 | 9.7 | 20.9 | 0.00 | 0.00 | 0.03 | 91 | 996.6 |
| 20260905110325 | 15 | 249 | 9.7 | 20.9 | 0.00 | 0.00 | 0.03 | 91 | 996.7 |
| 20260905105824 | 15 | 232 | 9.7 | 16.1 | 0.00 | 0.00 | 0.03 | 92 | 996.6 |
| 20260905105547 | 15 | 254 | 9.7 | 8.0 | 0.00 | 0.00 | 0.03 | 92 | 996.6 |
| 20260905104501 | 15 | 288 | 8.0 | 16.1 | 0.00 | 1.09 | 0.03 | 92 | 996.4 |
| 20260905103959 | 15 | 235 | 9.7 | 16.1 | 0.00 | 1.09 | 0.03 | 93 | 996.4 |
| 20260905103501 | 15 | 231 | 8.0 | 16.1 | 0.00 | 1.09 | 0.03 | 93 | 996.4 |
| 20260905102957 | 15 | 225 | 8.0 | 14.5 | 0.00 | 1.09 | 0.03 | 93 | 996.3 |
| 20260905102459 | 15 | 250 | 9.7 | 16.1 | 0.00 | 1.09 | 0.03 | 93 | 996.4 |
| 20260905101954 | 15 | 227 | 9.7 | 16.1 | 0.00 | 1.09 | 0.03 | 93 | 996.2 |
| 20260905101723 | 15 | 224 | 9.7 | 16.1 | 0.00 | 1.09 | 0.03 | 93 | 996.2 |
| 20260905100951 | 15 | 214 | 9.7 | 14.5 | 0.00 | 1.09 | 0.03 | 93 | 996.2 |
| 20260905100455 | 15 | 202 | 9.7 | 16.1 | 0.00 | 1.09 | 0.03 | 93 | 996.0 |
| 20260905095951 | 15 | 209 | 9.7 | 16.1 | 0.00 | 1.09 | 0.03 | 93 | 996.0 |
| 20260905095453 | 15 | 205 | 9.7 | 12.9 | 0.00 | 1.09 | 0.03 | 94 | 996.1 |
| 20260905094953 | 15 | 212 | 9.7 | 19.3 | 0.00 | 1.09 | 0.03 | 94 | 995.9 |
| 20260905094712 | 15 | 229 | 9.7 | 19.3 | 0.00 | 1.09 | 0.03 | 94 | 995.9 |
| 20260905093952 | 15 | 204 | 9.7 | 16.1 | 0.00 | 1.09 | 0.03 | 94 | 996.0 |
| 20260905093717 | 15 | 221 | 8.0 | 16.1 | 0.00 | 1.09 | 0.03 | 94 | 996.0 |
| 20260905092949 | 14 | 226 | 8.0 | 16.1 | 0.00 | 1.09 | 0.03 | 94 | 995.8 |
| 20260905092449 | 14 | 245 | 8.0 | 14.5 | 0.00 | 1.09 | 0.03 | 94 | 995.9 |
| 20260905091945 | 14 | 221 | 8.0 | 14.5 | 0.00 | 1.09 | 0.03 | 93 | 995.8 |
| 20260905091446 | 14 | 215 | 8.0 | 14.5 | 0.00 | 1.09 | 0.03 | 93 | 995.8 |
| 20260905091000 | 14 | 234 | 8.0 | 16.1 | 0.00 | 1.09 | 0.03 | 93 | 995.7 |
| 20260905090439 | 14 | 225 | 11.3 | 22.5 | 0.00 | 1.09 | 0.03 | 94 | 995.7 |
| 20260905085940 | 15 | 252 | 11.3 | 22.5 | 0.00 | 1.09 | 0.03 | 94 | 995.7 |
| 20260905085441 | 15 | 238 | 9.7 | 17.7 | 0.00 | 1.09 | 0.03 | 95 | 995.7 |
| 20260905085159 | 15 | 250 | 8.0 | 16.1 | 0.00 | 1.09 | 0.03 | 95 | 995.5 |
| 20260905084438 | 14 | 244 | 9.7 | 19.3 | 0.00 | 1.09 | 0.03 | 96 | 995.7 |
| 20260905083939 | 14 | 250 | 9.7 | 19.3 | 0.00 | 1.09 | 0.03 | 96 | 995.7 |
| 20260905083437 | 14 | 227 | 11.3 | 19.3 | 0.00 | 1.09 | 0.03 | 96 | 995.6 |
| 20260905082938 | 14 | 205 | 9.7 | 19.3 | 0.00 | 1.09 | 0.03 | 96 | 995.6 |
| 20260905082436 | 14 | 209 | 8.0 | 17.7 | 0.00 | 1.09 | 0.03 | 97 | 995.6 |
| 20260905081937 | 13 | 220 | 6.4 | 12.9 | 0.00 | 1.09 | 0.03 | 97 | 995.2 |
| 20260905081435 | 13 | 194 | 6.4 | 12.9 | 0.00 | 1.09 | 0.03 | 97 | 995.3 |
| 20260905080936 | 13 | 236 | 6.4 | 12.9 | 0.00 | 1.09 | 0.03 | 97 | 995.2 |
| 20260905080438 | 13 | 272 | 8.0 | 12.9 | 0.00 | 1.09 | 0.03 | 97 | 995.2 |
| 20260905080200 | 13 | 216 | 6.4 | 12.9 | 0.00 | 1.09 | 0.03 | 97 | 995.2 |
| 20260905075435 | 13 | 260 | 8.0 | 14.5 | 0.00 | 1.09 | 0.03 | 97 | 995.1 |
| 20260905074937 | 13 | 253 | 8.0 | 14.5 | 0.00 | 1.09 | 0.03 | 97 | 995.1 |
| 20260905074434 | 13 | 232 | 6.4 | 14.5 | 0.00 | 1.12 | 0.03 | 97 | 994.9 |
| 20260905073947 | 13 | 208 | 8.0 | 16.1 | 0.00 | 1.14 | 0.03 | 97 | 995.0 |
| 20260905073435 | 13 | 242 | 8.0 | 16.1 | 0.00 | 1.17 | 0.03 | 98 | 994.9 |
| 20260905072933 | 13 | 267 | 8.0 | 14.5 | 0.00 | 1.17 | 0.03 | 97 | 995.0 |
| 20260905072432 | 13 | 207 | 8.0 | 14.5 | 0.00 | 1.17 | 0.03 | 97 | 995.0 |
| 20260905071931 | 13 | 254 | 8.0 | 14.5 | 0.00 | 1.17 | 0.03 | 98 | 994.9 |
| 20260905071911 | 13 | 209 | 9.7 | 16.1 | 0.00 | 1.17 | 0.03 | 98 | 995.0 |
| 20260905070933 | 13 | 265 | 9.7 | 16.1 | 0.00 | 1.17 | 0.03 | 98 | 994.7 |
| 20260905070432 | 13 | 219 | 9.7 | 16.1 | 0.00 | 1.22 | 0.03 | 98 | 994.8 |
| 20260905065935 | 13 | 236 | 9.7 | 16.1 | 0.00 | 1.27 | 0.03 | 98 | 994.7 |
| 20260905065431 | 13 | 217 | 8.0 | 14.5 | 0.00 | 1.27 | 0.03 | 98 | 994.8 |
| 20260905064927 | 13 | 232 | 6.4 | 11.3 | 0.00 | 1.27 | 0.03 | 98 | 994.7 |
| 20260905064651 | 13 | 231 | 6.4 | 9.7 | 0.00 | 1.27 | 0.03 | 98 | 994.8 |
| 20260905063928 | 12 | 231 | 6.4 | 9.7 | 0.00 | 1.27 | 0.03 | 98 | 994.6 |
| 20260905063428 | 12 | 227 | 6.4 | 11.3 | 0.00 | 1.30 | 0.03 | 98 | 994.7 |
| 20260905062925 | 12 | 229 | 8.0 | 20.9 | 0.00 | 1.32 | 0.03 | 98 | 994.6 |
| 20260905062425 | 12 | 213 | 8.0 | 20.9 | 0.00 | 1.32 | 0.03 | 98 | 994.5 |
| 20260905061923 | 12 | 211 | 8.0 | 20.9 | 0.00 | 1.35 | 0.03 | 98 | 994.7 |
| 20260905061416 | 12 | 249 | 9.7 | 14.5 | 0.00 | 1.35 | 0.03 | 98 | 994.7 |
| 20260905060912 | 12 | 215 | 9.7 | 16.1 | 0.00 | 1.35 | 0.03 | 98 | 994.6 |
| 20260905060410 | 12 | 204 | 9.7 | 16.1 | 0.00 | 1.35 | 0.03 | 98 | 994.6 |
| 20260905055909 | 12 | 206 | 9.7 | 17.7 | 0.00 | 1.35 | 0.03 | 98 | 994.4 |
| 20260905055411 | 12 | 203 | 9.7 | 17.7 | 0.00 | 1.35 | 0.03 | 98 | 994.5 |
| 20260905054909 | 12 | 217 | 9.7 | 14.5 | 0.00 | 1.35 | 0.03 | 98 | 994.3 |
| 20260905054410 | 12 | 202 | 9.7 | 14.5 | 0.00 | 1.35 | 0.03 | 98 | 994.5 |
| 20260905053909 | 12 | 217 | 9.7 | 17.7 | 0.00 | 1.35 | 0.03 | 98 | 994.4 |
| 20260905053628 | 12 | 211 | 9.7 | 17.7 | 0.00 | 1.35 | 0.03 | 98 | 994.3 |
| 20260905052908 | 12 | 211 | 9.7 | 16.1 | 0.00 | 1.35 | 0.03 | 98 | 994.3 |
| 20260905052407 | 12 | 202 | 6.4 | 16.1 | 0.00 | 1.35 | 0.03 | 98 | 994.2 |
| 20260905051909 | 12 | 210 | 4.8 | 9.7 | 0.00 | 1.35 | 0.03 | 98 | 994.2 |
| 20260905051407 | 12 | 211 | 4.8 | 11.3 | 0.00 | 1.35 | 0.03 | 98 | 994.2 |
| 20260905050905 | 12 | 206 | 6.4 | 11.3 | 0.00 | 1.35 | 0.03 | 98 | 994.1 |
| 20260905050406 | 12 | 225 | 6.4 | 12.9 | 0.00 | 1.37 | 0.03 | 98 | 994.1 |
| 20260905050122 | 12 | 240 | 6.4 | 16.1 | 0.00 | 1.37 | 0.03 | 98 | 994.1 |
| 20260905045403 | 12 | 246 | 6.4 | 16.1 | 0.00 | 1.40 | 0.03 | 98 | 994.2 |
| 20260905044859 | 12 | 244 | 6.4 | 12.9 | 0.00 | 1.42 | 0.03 | 98 | 994.2 |
| 20260905044351 | 12 | 212 | 6.4 | 11.3 | 0.00 | 1.42 | 0.03 | 98 | 994.2 |
| 20260905043851 | 12 | 209 | 8.0 | 12.9 | 0.00 | 1.42 | 0.03 | 98 | 994.2 |
| 20260905043352 | 12 | 219 | 6.4 | 12.9 | 0.00 | 1.47 | 0.03 | 98 | 994.3 |
| 20260905042849 | 12 | 219 | 6.4 | 12.9 | 0.00 | 1.47 | 0.03 | 98 | 994.2 |
| 20260905042347 | 12 | 211 | 8.0 | 12.9 | 0.00 | 1.47 | 0.03 | 98 | 994.2 |
| 20260905041848 | 11 | 212 | 8.0 | 17.7 | 0.00 | 1.50 | 0.03 | 98 | 994.2 |
| 20260905041347 | 11 | 225 | 8.0 | 17.7 | 0.00 | 1.50 | 0.03 | 98 | 994.3 |
| 20260905040847 | 11 | 201 | 8.0 | 19.3 | 0.00 | 1.50 | 0.03 | 98 | 994.3 |
| 20260905040349 | 11 | 209 | 8.0 | 19.3 | 0.00 | 1.52 | 0.03 | 98 | 994.2 |
| 20260905035847 | 11 | 221 | 9.7 | 16.1 | 0.00 | 1.65 | 0.03 | 98 | 994.3 |
| 20260905035613 | 11 | 196 | 8.0 | 16.1 | 0.00 | 1.73 | 0.03 | 98 | 994.2 |